Saint Bonnet de Bellac- Haute Vienne - France
Donnes mto: jeudi, 08/03/2012
Date Horaire Temp. E. Hum. E. P.atmo. Pluie Vent Direction Direction Ensoleilleme Solaire P. de rose Temp au vent Rafales
08/03/2012 00:00 5,8 C 93 % 1023,6 hPa 0,0 mm 1,4 km/h (1 Bft) O 270 0 min 0 W/m 4,8 C 5,8 C 4,3 km/h (1 Bft)
08/03/2012 00:10 5,7 C 93 % 1023,6 hPa 0,0 mm 1,4 km/h (1 Bft) NO 315 0 min 0 W/m 4,7 C 5,7 C 7,6 km/h (2 Bft)
08/03/2012 00:20 5,7 C 93 % 1023,8 hPa 0,0 mm 6,8 km/h (2 Bft) NO 315 0 min 0 W/m 4,7 C 4,3 C 12,6 km/h (3 Bft)
08/03/2012 00:30 5,7 C 93 % 1023,8 hPa 0,0 mm 3,6 km/h (1 Bft) NO 315 0 min 0 W/m 4,7 C 5,7 C 3,6 km/h (1 Bft)
08/03/2012 00:40 5,8 C 93 % 1023,9 hPa 0,0 mm 5,0 km/h (1 Bft) N-NO 337 0 min 0 W/m 4,8 C 5,0 C 7,6 km/h (2 Bft)
08/03/2012 00:50 5,7 C 93 % 1024,2 hPa 0,0 mm 0,4 km/h (0 Bft) NO 315 0 min 0 W/m 4,7 C 5,7 C 4,3 km/h (1 Bft)
08/03/2012 01:00 5,6 C 93 % 1024,3 hPa 0,0 mm 12,6 km/h (3 Bft) NO 315 0 min 0 W/m 4,6 C 2,9 C 12,6 km/h (3 Bft)
08/03/2012 01:10 5,4 C 93 % 1024,3 hPa 0,0 mm 8,6 km/h (2 Bft) N-NO 337 0 min 0 W/m 4,4 C 3,5 C 13,3 km/h (3 Bft)
08/03/2012 01:20 5,3 C 92 % 1024,3 hPa 0,0 mm 15,5 km/h (3 Bft) NO 315 0 min 0 W/m 4,1 C 2,0 C 15,5 km/h (3 Bft)
08/03/2012 01:30 5,1 C 92 % 1024,7 hPa 0,0 mm 1,1 km/h (1 Bft) O-NO 292 0 min 0 W/m 3,9 C 5,1 C 4,0 km/h (1 Bft)
08/03/2012 01:40 4,9 C 92 % 1024,8 hPa 0,0 mm 11,5 km/h (2 Bft) NO 315 0 min 0 W/m 3,7 C 2,2 C 17,6 km/h (3 Bft)
08/03/2012 01:50 4,8 C 92 % 1024,9 hPa 0,0 mm 4,0 km/h (1 Bft) NO 315 0 min 0 W/m 3,6 C 4,8 C 7,2 km/h (2 Bft)
08/03/2012 02:02 4,6 C 92 % 1025,1 hPa 0,0 mm 6,8 km/h (2 Bft) NO 315 0 min 0 W/m 3,4 C 3,0 C 9,4 km/h (2 Bft)
08/03/2012 02:10 4,4 C 91 % 1025,1 hPa 0,0 mm 8,3 km/h (2 Bft) N-NO 337 0 min 0 W/m 3,1 C 2,4 C 9,4 km/h (2 Bft)
08/03/2012 02:20 4,2 C 91 % 1025,1 hPa 0,0 mm 2,5 km/h (1 Bft) NO 315 0 min 0 W/m 2,9 C 4,2 C 8,3 km/h (2 Bft)
08/03/2012 02:30 4,0 C 91 % 1025,3 hPa 0,0 mm 4,7 km/h (1 Bft) NO 315 0 min 0 W/m 2,7 C 3,1 C 9,4 km/h (2 Bft)
08/03/2012 02:40 3,8 C 92 % 1025,5 hPa 0,0 mm 8,3 km/h (2 Bft) NO 315 0 min 0 W/m 2,6 C 1,6 C 11,9 km/h (2 Bft)
08/03/2012 02:50 3,7 C 91 % 1025,7 hPa 0,0 mm 11,2 km/h (2 Bft) N-NO 337 0 min 0 W/m 2,4 C 0,8 C 11,2 km/h (2 Bft)
08/03/2012 03:00 3,6 C 92 % 1025,6 hPa 0,0 mm 7,6 km/h (2 Bft) O-NO 292 0 min 0 W/m 2,4 C 1,6 C 13,0 km/h (3 Bft)
08/03/2012 03:10 3,4 C 92 % 1025,7 hPa 0,0 mm 7,6 km/h (2 Bft) N-NO 337 0 min 0 W/m 2,2 C 1,4 C 8,6 km/h (2 Bft)
08/03/2012 03:20 3,3 C 92 % 1025,7 hPa 0,0 mm 5,0 km/h (1 Bft) NO 315 0 min 0 W/m 2,1 C 2,2 C 6,8 km/h (2 Bft)
08/03/2012 03:30 3,2 C 92 % 1025,8 hPa 0,0 mm 7,2 km/h (2 Bft) N-NO 337 0 min 0 W/m 2,0 C 1,3 C 10,8 km/h (2 Bft)
08/03/2012 03:40 3,1 C 92 % 1025,9 hPa 0,0 mm 7,9 km/h (2 Bft) O-NO 292 0 min 0 W/m 1,9 C 0,9 C 10,1 km/h (2 Bft)
08/03/2012 03:50 3,1 C 92 % 1026,0 hPa 0,0 mm 10,4 km/h (2 Bft) N-NO 337 0 min 0 W/m 1,9 C 0,3 C 15,5 km/h (3 Bft)
08/03/2012 04:00 3,0 C 92 % 1026,0 hPa 0,0 mm 3,6 km/h (1 Bft) NO 315 0 min 0 W/m 1,8 C 3,0 C 6,8 km/h (2 Bft)
08/03/2012 04:10 2,9 C 92 % 1026,2 hPa 0,0 mm 6,5 km/h (2 Bft) NO 315 0 min 0 W/m 1,7 C 1,1 C 15,5 km/h (3 Bft)
08/03/2012 04:20 2,9 C 92 % 1026,3 hPa 0,0 mm 5,0 km/h (1 Bft) N-NO 337 0 min 0 W/m 1,7 C 1,7 C 8,6 km/h (2 Bft)
08/03/2012 04:30 2,8 C 92 % 1026,4 hPa 0,0 mm 3,2 km/h (1 Bft) N 360 0 min 0 W/m 1,6 C 2,8 C 7,2 km/h (2 Bft)
08/03/2012 04:40 2,6 C 92 % 1026,5 hPa 0,0 mm 2,9 km/h (1 Bft) N-NO 337 0 min 0 W/m 1,4 C 2,6 C 11,2 km/h (2 Bft)
08/03/2012 04:50 2,6 C 92 % 1026,7 hPa 0,0 mm 1,1 km/h (1 Bft) N-NO 337 0 min 0 W/m 1,4 C 2,6 C 3,6 km/h (1 Bft)
08/03/2012 05:00 2,6 C 92 % 1026,7 hPa 0,0 mm 1,1 km/h (1 Bft) O-NO 292 0 min 0 W/m 1,4 C 2,6 C 1,1 km/h (1 Bft)
08/03/2012 05:10 2,5 C 92 % 1026,9 hPa 0,0 mm 2,5 km/h (1 Bft) N 360 0 min 0 W/m 1,3 C 2,5 C 4,3 km/h (1 Bft)
08/03/2012 05:20 2,4 C 92 % 1027,0 hPa 0,0 mm 2,2 km/h (1 Bft) N-NO 337 0 min 0 W/m 1,2 C 2,4 C 3,2 km/h (1 Bft)
08/03/2012 05:30 2,4 C 92 % 1027,2 hPa 0,0 mm 6,8 km/h (2 Bft) NE 45 0 min 0 W/m 1,2 C 0,5 C 14,0 km/h (3 Bft)
08/03/2012 05:40 2,3 C 92 % 1027,2 hPa 0,1 mm 0,0 km/h (0 Bft) NO 315 0 min 0 W/m 1,1 C 2,3 C 0,0 km/h (0 Bft)
08/03/2012 05:50 2,3 C 92 % 1027,2 hPa 0,0 mm 0,4 km/h (0 Bft) NO 315 0 min 0 W/m 1,1 C 2,3 C 0,4 km/h (0 Bft)
08/03/2012 06:00 2,2 C 92 % 1027,4 hPa 0,0 mm 1,8 km/h (1 Bft) N-NO 337 0 min 0 W/m 1,0 C 2,2 C 4,3 km/h (1 Bft)
08/03/2012 06:10 2,1 C 92 % 1027,5 hPa 0,0 mm 3,2 km/h (1 Bft) N-NO 337 0 min 0 W/m 0,9 C 2,1 C 7,6 km/h (2 Bft)
08/03/2012 06:20 2,0 C 92 % 1027,6 hPa 0,0 mm 2,5 km/h (1 Bft) N-NO 337 0 min 0 W/m 0,8 C 2,0 C 7,6 km/h (2 Bft)
08/03/2012 06:30 1,9 C 92 % 1027,8 hPa 0,0 mm 4,3 km/h (1 Bft) N-NO 337 0 min 0 W/m 0,7 C 1,9 C 4,3 km/h (1 Bft)
08/03/2012 06:40 1,9 C 92 % 1028,0 hPa 0,0 mm 0,7 km/h (0 Bft) N-NO 337 0 min 0 W/m 0,7 C 1,9 C 3,6 km/h (1 Bft)
08/03/2012 06:50 1,8 C 92 % 1028,0 hPa 0,0 mm 1,4 km/h (1 Bft) NE 45 0 min 0 W/m 0,6 C 1,8 C 4,0 km/h (1 Bft)
08/03/2012 07:00 1,8 C 92 % 1028,1 hPa 0,0 mm 0,4 km/h (0 Bft) N-NO 337 0 min 0 W/m 0,6 C 1,8 C 0,4 km/h (0 Bft)
08/03/2012 07:10 1,8 C 92 % 1028,2 hPa 0,0 mm 3,6 km/h (1 Bft) NO 315 0 min 0 W/m 0,6 C 1,8 C 9,4 km/h (2 Bft)
08/03/2012 07:20 1,8 C 92 % 1028,4 hPa 0,0 mm 0,0 km/h (0 Bft) NO 315 0 min 0 W/m 0,6 C 1,8 C 3,6 km/h (1 Bft)
08/03/2012 07:30 1,8 C 92 % 1028,5 hPa 0,0 mm 1,4 km/h (1 Bft) NO 315 0 min 0 W/m 0,6 C 1,8 C 1,4 km/h (1 Bft)
08/03/2012 07:40 1,8 C 93 % 1028,7 hPa 0,0 mm 0,4 km/h (0 Bft) N-NE 22 2 min 0 W/m 0,8 C 1,8 C 0,4 km/h (0 Bft)
08/03/2012 07:50 1,8 C 93 % 1028,9 hPa 0,0 mm 0,4 km/h (0 Bft) N-NE 22 2 min 0 W/m 0,8 C 1,8 C 0,4 km/h (0 Bft)
08/03/2012 08:00 1,8 C 93 % 1029,1 hPa 0,0 mm 0,0 km/h (0 Bft) N 360 2 min 0 W/m 0,8 C 1,8 C 0,0 km/h (0 Bft)
08/03/2012 08:10 1,8 C 93 % 1029,4 hPa 0,0 mm 0,0 km/h (0 Bft) N-NO 337 2 min 0 W/m 0,8 C 1,8 C 0,0 km/h (0 Bft)
08/03/2012 08:20 1,9 C 93 % 1029,5 hPa 0,0 mm 7,9 km/h (2 Bft) NO 315 2 min 0 W/m 0,9 C -0,5 C 10,4 km/h (2 Bft)
08/03/2012 08:30 1,9 C 93 % 1029,8 hPa 0,0 mm 3,6 km/h (1 Bft) NO 315 2 min 0 W/m 0,9 C 1,9 C 7,9 km/h (2 Bft)
08/03/2012 08:40 2,1 C 93 % 1029,9 hPa 0,0 mm 0,4 km/h (0 Bft) N-NO 337 2 min 0 W/m 1,1 C 2,1 C 3,2 km/h (1 Bft)
08/03/2012 08:50 2,5 C 93 % 1030,0 hPa 0,0 mm 0,4 km/h (0 Bft) N-NO 337 2 min 0 W/m 1,5 C 2,5 C 3,2 km/h (1 Bft)
08/03/2012 09:00 2,9 C 93 % 1030,2 hPa 0,0 mm 6,5 km/h (2 Bft) O-NO 292 2 min 0 W/m 1,9 C 1,1 C 10,8 km/h (2 Bft)
08/03/2012 09:10 3,4 C 94 % 1030,3 hPa 0,0 mm 4,0 km/h (1 Bft) N 360 2 min 0 W/m 2,5 C 3,4 C 10,8 km/h (2 Bft)
08/03/2012 09:20 3,9 C 94 % 1030,6 hPa 0,0 mm 5,4 km/h (2 Bft) N-NE 22 2 min 0 W/m 3,0 C 2,7 C 9,4 km/h (2 Bft)
08/03/2012 09:30 4,1 C 93 % 1030,8 hPa 0,0 mm 4,0 km/h (1 Bft) N-NE 22 2 min 0 W/m 3,1 C 4,1 C 9,7 km/h (2 Bft)
08/03/2012 09:40 4,3 C 93 % 1031,0 hPa 0,0 mm 2,5 km/h (1 Bft) N-NE 22 2 min 0 W/m 3,3 C 4,3 C 11,9 km/h (2 Bft)
08/03/2012 09:50 4,6 C 92 % 1031,1 hPa 0,0 mm 2,5 km/h (1 Bft) NO 315 2 min 0 W/m 3,4 C 4,6 C 6,1 km/h (2 Bft)
08/03/2012 10:00 5,2 C 92 % 1031,2 hPa 0,0 mm 0,7 km/h (0 Bft) N 360 2 min 0 W/m 4,0 C 5,2 C 4,0 km/h (1 Bft)
08/03/2012 10:10 5,6 C 90 % 1031,4 hPa 0,0 mm 0,0 km/h (0 Bft) N 360 2 min 0 W/m 4,1 C 5,6 C 3,2 km/h (1 Bft)
08/03/2012 10:20 5,8 C 89 % 1031,4 hPa 0,0 mm 2,5 km/h (1 Bft) NE 45 2 min 0 W/m 4,1 C 5,8 C 4,0 km/h (1 Bft)
08/03/2012 10:30 6,3 C 89 % 1031,4 hPa 0,0 mm 14,0 km/h (3 Bft) N-NE 22 2 min 0 W/m 4,6 C 3,5 C 16,2 km/h (3 Bft)
08/03/2012 10:40 6,4 C 86 % 1031,5 hPa 0,0 mm 10,8 km/h (2 Bft) N-NE 22 2 min 0 W/m 4,2 C 4,2 C 13,3 km/h (3 Bft)
08/03/2012 10:50 6,3 C 85 % 1031,5 hPa 0,0 mm 4,3 km/h (1 Bft) E-NE 67 2 min 0 W/m 4,0 C 6,3 C 12,6 km/h (3 Bft)
08/03/2012 11:00 6,8 C 85 % 1031,6 hPa 0,0 mm 2,5 km/h (1 Bft) E-NE 67 2 min 0 W/m 4,5 C 6,8 C 2,9 km/h (1 Bft)
08/03/2012 11:10 7,2 C 84 % 1031,8 hPa 0,0 mm 4,7 km/h (1 Bft) E-NE 67 2 min 0 W/m 4,7 C 6,7 C 7,9 km/h (2 Bft)
08/03/2012 11:20 7,6 C 82 % 1031,9 hPa 0,0 mm 9,0 km/h (2 Bft) N-NE 22 2 min 0 W/m 4,7 C 6,0 C 11,2 km/h (2 Bft)
08/03/2012 11:30 7,5 C 81 % 1031,9 hPa 0,0 mm 3,2 km/h (1 Bft) NE 45 2 min 0 W/m 4,5 C 7,5 C 13,3 km/h (3 Bft)
08/03/2012 11:40 7,3 C 80 % 1032,0 hPa 0,0 mm 5,0 km/h (1 Bft) N-NE 22 2 min 0 W/m 4,1 C 6,7 C 6,8 km/h (2 Bft)
08/03/2012 11:50 7,2 C 80 % 1031,9 hPa 0,0 mm 6,5 km/h (2 Bft) E-NE 67 2 min 0 W/m 4,0 C 6,1 C 10,8 km/h (2 Bft)
08/03/2012 12:00 7,5 C 79 % 1031,9 hPa 0,0 mm 6,5 km/h (2 Bft) N-NE 22 2 min 0 W/m 4,1 C 6,5 C 12,2 km/h (2 Bft)
08/03/2012 12:10 8,0 C 78 % 1032,3 hPa 0,0 mm 11,5 km/h (2 Bft) N-NE 22 2 min 0 W/m 4,4 C 6,0 C 13,3 km/h (3 Bft)
08/03/2012 12:20 8,3 C 77 % 1032,3 hPa 0,0 mm 6,1 km/h (2 Bft) NO 315 2 min 0 W/m 4,5 C 7,5 C 7,9 km/h (2 Bft)
08/03/2012 12:30 8,3 C 75 % 1032,3 hPa 0,0 mm 5,4 km/h (2 Bft) N-NE 22 2 min 0 W/m 4,1 C 7,7 C 8,3 km/h (2 Bft)
08/03/2012 12:40 8,3 C 75 % 1032,2 hPa 0,0 mm 8,3 km/h (2 Bft) N-NE 22 2 min 0 W/m 4,1 C 6,9 C 13,0 km/h (3 Bft)
08/03/2012 12:50 8,2 C 73 % 1032,2 hPa 0,0 mm 5,8 km/h (2 Bft) N-NE 22 2 min 0 W/m 3,7 C 7,5 C 7,9 km/h (2 Bft)
08/03/2012 13:00 8,2 C 73 % 1032,1 hPa 0,0 mm 4,3 km/h (1 Bft) N-NO 337 2 min 0 W/m 3,7 C 8,2 C 9,0 km/h (2 Bft)
08/03/2012 13:10 8,5 C 72 % 1032,1 hPa 0,0 mm 7,9 km/h (2 Bft) NE 45 2 min 0 W/m 3,7 C 7,3 C 11,5 km/h (2 Bft)
08/03/2012 13:20 8,8 C 70 % 1032,1 hPa 0,0 mm 6,1 km/h (2 Bft) N-NO 337 2 min 0 W/m 3,6 C 8,1 C 7,2 km/h (2 Bft)
08/03/2012 13:30 8,8 C 68 % 1031,9 hPa 0,0 mm 5,0 km/h (1 Bft) NE 45 2 min 0 W/m 3,2 C 8,4 C 6,1 km/h (2 Bft)
08/03/2012 13:40 9,1 C 69 % 1031,9 hPa 0,0 mm 2,9 km/h (1 Bft) NE 45 2 min 0 W/m 3,7 C 9,1 C 2,9 km/h (1 Bft)
08/03/2012 13:50 9,2 C 68 % 1031,9 hPa 0,0 mm 4,7 km/h (1 Bft) N-NO 337 2 min 0 W/m 3,6 C 8,9 C 10,1 km/h (2 Bft)
08/03/2012 14:00 9,6 C 66 % 1032,1 hPa 0,0 mm 1,4 km/h (1 Bft) N 360 2 min 0 W/m 3,6 C 9,6 C 1,4 km/h (1 Bft)
08/03/2012 14:10 9,5 C 65 % 1031,9 hPa 0,0 mm 6,1 km/h (2 Bft) NE 45 2 min 0 W/m 3,3 C 8,9 C 9,0 km/h (2 Bft)
08/03/2012 14:20 9,6 C 66 % 1032,0 hPa 0,0 mm 7,2 km/h (2 Bft) N-NE 22 2 min 0 W/m 3,6 C 8,7 C 8,6 km/h (2 Bft)
08/03/2012 14:30 9,5 C 65 % 1031,9 hPa 0,0 mm 2,2 km/h (1 Bft) N-NE 22 2 min 0 W/m 3,3 C 9,5 C 4,3 km/h (1 Bft)
08/03/2012 14:40 9,6 C 64 % 1031,8 hPa 0,0 mm 9,0 km/h (2 Bft) N-NE 22 2 min 0 W/m 3,1 C 8,3 C 12,6 km/h (3 Bft)
08/03/2012 14:50 9,5 C 63 % 1031,9 hPa 0,0 mm 6,8 km/h (2 Bft) N 360 2 min 0 W/m 2,8 C 8,7 C 8,6 km/h (2 Bft)
08/03/2012 15:00 9,1 C 63 % 1031,8 hPa 0,0 mm 4,7 km/h (1 Bft) N 360 2 min 0 W/m 2,4 C 8,8 C 6,8 km/h (2 Bft)
08/03/2012 15:10 9,2 C 65 % 1031,7 hPa 0,0 mm 6,1 km/h (2 Bft) NO 315 2 min 0 W/m 3,0 C 8,5 C 10,1 km/h (2 Bft)
08/03/2012 15:20 9,8 C 63 % 1031,7 hPa 0,0 mm 6,5 km/h (2 Bft) N-NO 337 2 min 0 W/m 3,1 C 9,1 C 6,5 km/h (2 Bft)
08/03/2012 15:30 9,8 C 62 % 1031,8 hPa 0,0 mm 6,8 km/h (2 Bft) N 360 2 min 0 W/m 2,9 C 9,0 C 11,5 km/h (2 Bft)
08/03/2012 15:40 9,6 C 61 % 1031,7 hPa 0,0 mm 6,5 km/h (2 Bft) N-NO 337 2 min 0 W/m 2,5 C 8,9 C 6,5 km/h (2 Bft)
08/03/2012 15:50 9,6 C 60 % 1031,7 hPa 0,0 mm 6,8 km/h (2 Bft) N 360 2 min 0 W/m 2,2 C 8,8 C 7,6 km/h (2 Bft)
08/03/2012 16:00 9,8 C 60 % 1031,7 hPa 0,0 mm 11,9 km/h (2 Bft) NO 315 2 min 0 W/m 2,4 C 8,1 C 15,5 km/h (3 Bft)
08/03/2012 16:10 9,4 C 60 % 1031,8 hPa 0,0 mm 5,0 km/h (1 Bft) N-NE 22 2 min 0 W/m 2,0 C 9,1 C 9,4 km/h (2 Bft)
08/03/2012 16:20 8,9 C 61 % 1031,7 hPa 0,0 mm 9,0 km/h (2 Bft) NE 45 2 min 0 W/m 1,8 C 7,5 C 9,0 km/h (2 Bft)
08/03/2012 16:30 8,6 C 62 % 1031,9 hPa 0,0 mm 12,2 km/h (2 Bft) N 360 2 min 0 W/m 1,7 C 6,6 C 19,8 km/h (3 Bft)
08/03/2012 16:40 8,4 C 63 % 1032,0 hPa 0,0 mm 6,5 km/h (2 Bft) NE 45 2 min 0 W/m 1,8 C 7,5 C 7,2 km/h (2 Bft)
_ Min-Heure 08:10 16:10 00:10 - 10:10 - - - - 07:30 08:20 08:10
Minimum _ 1,8 C 60 % 1023,6 hPa - 0,0 km/h (0 Bft) - - - - 0,6 C -0,5 C 0,0 km/h (0 Bft)
_ Max-Heure 16:00 09:20 12:30 05:40 01:20 - - 16:40 16:40 00:40 14:00 16:30
Maximum _ 9,8 C 94 % 1032,3 hPa 0,1 mm 15,5 km/h
NO (3 Bft)
- - 2 min 0 W/m 4,8 C 9,6 C 19,8 km/h
N (3 Bft)
Moyenne _ 5,3 C 84 % 1029,0 hPa #0,1 mm 5,0 km/h (1 Bft) NO - #1:50 h 0 W/m 2,7 C 4,6 C 8,1 km/h (2 Bft)
Saint Bonnet de Bellac- Haute Vienne - France